Time;durP1;ratioP1;P1;durP2;ratioP2;P2;SDS_P1;SDS_P2;PMS_P1;PMS_P2;Temp;Humidity;BMP_temperature;BMP_pressure;BME280_temperature;BME280_humidity;BME280_pressure;Samples;Min_cycle;Max_cycle;Signal;HPM_P1;HPM_P2
2021/01/26 00:00:56;;;;;;;1.88;0.52;;;;;;;7.55;49.41;93333.63;10469165;28;20479;-74
2021/01/26 00:05:57;;;;;;;0.55;0.40;;;;;;;7.45;48.34;93331.91;10487824;28;20020;-73
2021/01/26 00:10:58;;;;;;;0.82;0.47;;;;;;;7.48;48.10;93314.47;10487048;28;20483;-74
2021/01/26 00:15:59;;;;;;;4.57;0.55;;;;;;;7.59;47.51;93329.31;10487146;28;20108;-74
2021/01/26 00:21:00;;;;;;;6.85;0.60;;;;;;;7.72;46.54;93317.09;10487522;28;20053;-73
2021/01/26 00:26:00;;;;;;;3.00;1.30;;;;;;;7.72;47.14;93311.72;10445062;28;20028;-74
2021/01/26 00:31:00;;;;;;;3.38;0.55;;;;;;;7.74;46.39;93322.91;10502872;28;20032;-74
2021/01/26 00:36:01;;;;;;;0.67;0.30;;;;;;;7.75;47.34;93321.84;10487503;28;20099;-74
2021/01/26 00:41:02;;;;;;;2.30;0.50;;;;;;;7.65;46.60;93292.59;10488827;28;20294;-74
2021/01/26 00:46:02;;;;;;;4.03;0.73;;;;;;;7.67;47.60;93285.88;10495066;28;20066;-74
2021/01/26 00:51:03;;;;;;;1.70;0.47;;;;;;;7.61;47.45;93288.91;10499117;28;20515;-74
2021/01/26 00:56:04;;;;;;;2.80;1.50;;;;;;;7.71;47.16;93275.38;10536205;28;20032;-74
2021/01/26 01:01:05;;;;;;;2.00;0.47;;;;;;;7.60;48.09;93288.09;10536633;28;20032;-77
2021/01/26 01:06:06;;;;;;;3.58;0.82;;;;;;;7.62;48.28;93275.25;10515585;28;20020;-77
2021/01/26 01:11:07;;;;;;;3.58;0.55;;;;;;;7.59;48.17;93262.47;10533231;28;20538;-77
2021/01/26 01:16:07;;;;;;;1.48;0.55;;;;;;;7.69;48.33;93270.31;10515332;28;20024;-76
2021/01/26 01:21:07;;;;;;;4.53;0.68;;;;;;;7.66;50.44;93270.91;10522750;28;20094;-76
2021/01/26 01:26:08;;;;;;;1.53;0.40;;;;;;;7.55;49.27;93252.63;10491333;28;20049;-76
2021/01/26 01:31:08;;;;;;;4.60;0.80;;;;;;;7.55;50.03;93253.44;10490774;28;20046;-77
2021/01/26 01:36:08;;;;;;;1.45;0.77;;;;;;;7.40;49.74;93226.94;10490716;28;20286;-77
2021/01/26 01:41:10;;;;;;;1.87;0.83;;;;;;;7.33;50.83;93268.16;10489857;28;20878;-77
2021/01/26 01:46:19;;;;;;;2.88;0.77;;;;;;;7.35;52.41;93249.97;10489431;28;20275;-76
2021/01/26 01:51:24;;;;;;;1.92;0.90;;;;;;;7.32;50.29;93252.41;10488460;28;20020;-76
2021/01/26 01:56:42;;;;;;;1.50;0.60;;;;;;;7.40;50.63;93241.09;10490206;28;20056;-76
2021/01/26 02:01:43;;;;;;;2.25;0.70;;;;;;;7.32;53.43;93242.50;10489096;28;20031;-76
2021/01/26 02:06:46;;;;;;;3.35;0.70;;;;;;;7.32;53.37;93239.06;10489702;28;20036;-76
2021/01/26 02:11:47;;;;;;;2.10;1.15;;;;;;;7.12;56.05;93227.56;10489020;28;20531;-76
2021/01/26 02:17:12;;;;;;;2.50;0.98;;;;;;;7.09;52.90;93208.66;10489262;28;20123;-76
2021/01/26 02:22:31;;;;;;;3.92;0.73;;;;;;;7.12;54.41;93205.41;10506155;28;20520;-77
2021/01/26 02:27:50;;;;;;;;;;;;;;;6.99;57.70;93207.72;10510849;28;20143;-76
2021/01/26 02:33:12;;;;;;;4.13;1.27;;;;;;;7.08;53.69;93204.41;10511337;28;20004;-76
2021/01/26 02:38:34;;;;;;;1.40;0.70;;;;;;;7.18;54.17;93191.69;10527587;28;20071;-77
2021/01/26 02:44:02;;;;;;;2.30;0.80;;;;;;;7.24;53.94;93195.09;10509590;28;20023;-76
2021/01/26 02:49:08;;;;;;;1.85;0.88;;;;;;;7.17;54.54;93198.13;10510670;28;20131;-76
2021/01/26 02:54:26;;;;;;;4.28;1.30;;;;;;;7.21;55.70;93210.91;10529533;28;20039;-76
2021/01/26 02:59:36;;;;;;;6.45;2.08;;;;;;;7.22;56.40;93202.59;10510753;28;20035;-76
2021/01/26 03:04:59;;;;;;;3.78;1.08;;;;;;;7.15;56.92;93204.84;10526302;28;20031;-77
2021/01/26 03:10:04;;;;;;;10.93;1.83;;;;;;;7.00;60.13;93195.16;10527775;28;20028;-76
2021/01/26 03:15:15;;;;;;;3.65;0.65;;;;;;;7.04;58.13;93206.84;10528674;28;20024;-76
2021/01/26 03:20:29;;;;;;;2.10;1.25;;;;;;;6.98;60.35;93182.09;10526154;28;20047;-77
2021/01/26 03:25:30;;;;;;;2.97;1.25;;;;;;;6.93;61.65;93202.72;10528438;28;20031;-77
2021/01/26 03:30:35;;;;;;;1.48;1.00;;;;;;;6.85;61.57;93214.84;10528706;28;20024;-77
2021/01/26 03:35:35;;;;;;;4.80;1.23;;;;;;;6.89;64.10;93210.50;10507781;28;20024;-76
2021/01/26 03:40:36;;;;;;;2.65;0.80;;;;;;;6.89;63.28;93221.19;10526155;28;20032;-76
2021/01/26 03:45:36;;;;;;;3.15;1.00;;;;;;;6.83;67.15;93233.81;10531218;28;20081;-76
2021/01/26 03:50:48;;;;;;;8.95;1.17;;;;;;;6.80;66.52;93225.59;10530676;28;20089;-76
2021/01/26 03:56:05;;;;;;;6.47;1.58;;;;;;;6.76;68.11;93229.94;10530872;28;20068;-77
2021/01/26 04:01:14;;;;;;;3.45;2.25;;;;;;;6.61;67.12;93218.34;10512861;28;20039;-77
2021/01/26 04:06:37;;;;;;;4.72;1.95;;;;;;;6.61;66.76;93221.00;10530440;28;20509;-76
2021/01/26 04:11:51;;;;;;;8.52;1.52;;;;;;;6.50;69.45;93211.53;10530680;28;20093;-77
2021/01/26 04:17:18;;;;;;;2.58;1.30;;;;;;;6.47;69.51;93218.25;10534537;28;20028;-76
2021/01/26 04:22:18;;;;;;;7.35;1.70;;;;;;;6.31;74.16;93219.50;10527537;28;20119;-77
2021/01/26 04:27:22;;;;;;;7.70;1.60;;;;;;;6.28;74.92;93226.19;10520015;28;20558;-76
2021/01/26 04:32:23;;;;;;;6.47;2.33;;;;;;;6.31;74.67;93238.19;10519885;28;20028;-76
2021/01/26 04:37:24;;;;;;;6.97;2.47;;;;;;;6.19;76.75;93224.44;10537278;28;20034;-76
2021/01/26 04:42:27;;;;;;;6.87;2.33;;;;;;;6.10;78.52;93238.38;10454629;28;20025;-76
2021/01/26 04:47:39;;;;;;;15.35;4.00;;;;;;;6.09;78.81;93231.44;10454234;28;20085;-76
2021/01/26 04:52:56;;;;;;;10.13;2.92;;;;;;;5.91;81.10;93240.91;10454067;28;20025;-76
2021/01/26 04:58:04;;;;;;;9.70;3.60;;;;;;;5.80;82.08;93255.41;10453911;28;20031;-76
2021/01/26 05:03:26;;;;;;;10.75;4.20;;;;;;;5.73;87.13;93238.94;10454284;28;20029;-76
2021/01/26 05:08:32;;;;;;;11.38;3.53;;;;;;;5.69;90.07;93260.03;10453189;28;20029;-76
2021/01/26 05:13:38;;;;;;;13.57;4.05;;;;;;;5.43;94.96;93254.13;10435311;28;20033;-76
2021/01/26 05:18:47;;;;;;;8.60;3.70;;;;;;;5.45;100.00;93262.63;10452666;28;20033;-77
2021/01/26 05:23:54;;;;;;;8.38;4.65;;;;;;;5.22;100.00;93270.22;10515473;28;20054;-77
2021/01/26 05:28:54;;;;;;;9.75;4.97;;;;;;;4.89;100.00;93291.16;10534626;28;20039;-77
2021/01/26 05:34:12;;;;;;;8.70;4.13;;;;;;;4.76;100.00;93299.75;10529106;28;20043;-72
2021/01/26 05:39:27;;;;;;;8.88;4.68;;;;;;;4.51;100.00;93266.00;10529400;28;20332;-74
2021/01/26 05:44:27;;;;;;;9.38;5.03;;;;;;;4.31;100.00;93306.78;10492997;28;20032;-72
2021/01/26 05:49:36;;;;;;;7.07;3.95;;;;;;;4.37;100.00;93317.13;10499207;28;20031;-73
2021/01/26 05:54:45;;;;;;;12.63;4.57;;;;;;;4.53;100.00;93312.56;10533370;28;20111;-73
2021/01/26 05:59:46;;;;;;;12.40;5.07;;;;;;;4.60;100.00;93328.25;10534293;28;20039;-74
2021/01/26 06:04:47;;;;;;;9.93;4.20;;;;;;;4.61;100.00;93313.88;10487127;28;20020;-74
2021/01/26 06:09:48;;;;;;;8.45;4.13;;;;;;;4.41;100.00;93336.00;10490786;28;20274;-74
2021/01/26 06:14:55;;;;;;;7.43;3.50;;;;;;;4.11;100.00;93330.44;10491340;28;20467;-74
2021/01/26 06:20:13;;;;;;;8.35;3.85;;;;;;;4.13;100.00;93348.00;10491212;28;20383;-74
2021/01/26 06:25:24;;;;;;;6.95;3.85;;;;;;;4.18;100.00;93351.44;10502104;28;20039;-75
2021/01/26 06:30:36;;;;;;;6.90;3.63;;;;;;;4.20;100.00;93367.97;10493015;28;20029;-75
2021/01/26 06:35:47;;;;;;;5.63;3.55;;;;;;;4.00;100.00;93390.00;10528705;28;20040;-74
2021/01/26 06:41:14;;;;;;;5.63;3.22;;;;;;;3.88;100.00;93408.88;10524849;28;20105;-74
2021/01/26 06:46:33;;;;;;;3.53;2.10;;;;;;;3.68;100.00;93416.81;10490886;28;20028;-74
2021/01/26 06:51:46;;;;;;;4.75;2.42;;;;;;;3.32;100.00;93416.69;10490300;28;20032;-74
2021/01/26 06:57:41;;;;;;;3.15;2.60;;;;;;;3.14;100.00;93428.56;10512484;28;20387;-74
2021/01/26 07:03:30;;;;;;;5.90;2.80;;;;;;;3.00;100.00;93449.47;10515682;28;20103;-73
2021/01/26 07:08:46;;;;;;;6.93;2.85;;;;;;;2.97;100.00;93465.91;10472244;28;20112;-74
2021/01/26 07:13:57;;;;;;;4.18;2.38;;;;;;;2.95;100.00;93479.44;10523650;28;20039;-75
2021/01/26 07:19:24;;;;;;;3.00;2.42;;;;;;;3.15;100.00;93485.94;10517874;28;20040;-74
2021/01/26 07:24:47;;;;;;;4.07;3.25;;;;;;;3.38;100.00;93495.34;10496445;28;20037;-76
2021/01/26 07:30:06;;;;;;;4.53;2.42;;;;;;;3.30;100.00;93509.13;10510850;28;20549;-75
2021/01/26 07:35:22;;;;;;;3.85;1.50;;;;;;;3.17;100.00;93513.81;10470105;28;20023;-74
2021/01/26 07:40:26;;;;;;;2.05;1.10;;;;;;;2.74;100.00;93518.31;10488865;28;20090;-74
2021/01/26 07:45:55;;;;;;;6.32;1.30;;;;;;;1.92;100.00;93536.94;10488713;28;20499;-74
2021/01/26 07:50:58;;;;;;;4.55;1.73;;;;;;;1.04;100.00;93556.22;10479982;28;20060;-76
2021/01/26 07:56:06;;;;;;;3.75;2.08;;;;;;;0.74;100.00;93553.91;10503049;28;20083;-76
2021/01/26 08:01:07;;;;;;;4.25;3.20;;;;;;;0.26;100.00;93575.34;10502699;28;20502;-76
2021/01/26 08:06:36;;;;;;;2.30;1.90;;;;;;;0.09;100.00;93598.31;10502508;28;20024;-76
2021/01/26 08:11:49;;;;;;;1.85;1.50;;;;;;;-0.18;100.00;93612.84;10501873;28;20047;-76
2021/01/26 08:16:56;;;;;;;2.33;2.13;;;;;;;-0.33;100.00;93622.31;10512377;28;20029;-76
2021/01/26 08:21:58;;;;;;;2.15;1.27;;;;;;;-0.48;100.00;93636.00;10526433;28;20043;-76
2021/01/26 08:27:45;;;;;;;2.20;1.92;;;;;;;-0.56;100.00;93640.59;10525883;28;20375;-77
2021/01/26 08:33:04;;;;;;;2.35;1.48;;;;;;;-0.69;100.00;93654.00;10493309;28;20110;-77
2021/01/26 08:38:04;;;;;;;4.70;3.30;;;;;;;-0.71;100.00;93653.44;10543733;28;20020;-77
2021/01/26 08:43:06;;;;;;;6.90;2.88;;;;;;;-0.72;100.00;93662.38;10545062;28;20028;-77
2021/01/26 08:48:32;;;;;;;3.55;2.55;;;;;;;-0.72;100.00;93660.53;10543977;28;20494;-77
2021/01/26 08:53:37;;;;;;;4.97;2.55;;;;;;;-0.75;100.00;93663.66;10540041;28;20043;-77
2021/01/26 08:58:41;;;;;;;4.95;3.20;;;;;;;-0.86;100.00;93673.16;10592833;28;20019;-77
2021/01/26 09:03:42;;;;;;;4.10;3.20;;;;;;;-0.88;100.00;93672.59;10581447;28;20030;-76
2021/01/26 09:08:43;;;;;;;3.83;3.38;;;;;;;-0.85;100.00;93671.34;10578882;28;20383;-77
2021/01/26 09:13:46;;;;;;;3.97;3.15;;;;;;;-0.84;100.00;93666.84;10560152;28;20897;-76
2021/01/26 09:19:11;;;;;;;4.13;3.03;;;;;;;-0.88;100.00;93679.69;10561170;28;20043;-76
2021/01/26 09:24:20;;;;;;;3.53;2.53;;;;;;;-0.84;100.00;93690.59;10537028;28;20534;-77
2021/01/26 09:29:25;;;;;;;4.63;3.40;;;;;;;-0.79;100.00;93690.72;10564850;28;20027;-77
2021/01/26 09:34:28;;;;;;;4.65;3.05;;;;;;;-0.73;100.00;93710.91;10558353;28;20032;-77
2021/01/26 09:39:28;;;;;;;9.60;4.47;;;;;;;-0.56;100.00;93711.03;10532630;28;20459;-76
2021/01/26 09:44:28;;;;;;;4.33;3.47;;;;;;;-0.84;100.00;93712.50;10577347;28;20023;-74
2021/01/26 09:49:30;;;;;;;3.93;3.53;;;;;;;-0.75;100.00;93705.06;10530698;28;20285;-75
2021/01/26 09:54:37;;;;;;;5.20;3.33;;;;;;;-0.95;100.00;93708.81;10534551;28;20360;-75
2021/01/26 09:59:39;;;;;;;4.78;3.15;;;;;;;-0.64;100.00;93712.19;10543001;28;20395;-76
2021/01/26 10:04:41;;;;;;;2.90;2.53;;;;;;;-0.65;100.00;93717.69;10534448;28;20083;-75
2021/01/26 10:09:42;;;;;;;4.95;3.63;;;;;;;-0.62;100.00;93711.94;10534500;28;20406;-76
2021/01/26 10:15:20;;;;;;;11.85;5.97;;;;;;;-0.39;100.00;93701.41;10532869;28;20028;-75
2021/01/26 10:20:27;;;;;;;3.42;3.05;;;;;;;-0.59;100.00;93700.94;10533183;28;20065;-76
2021/01/26 10:25:27;;;;;;;4.78;3.72;;;;;;;-0.91;100.00;93702.06;10533865;28;20032;-76
2021/01/26 10:30:28;;;;;;;6.45;5.20;;;;;;;-0.77;100.00;93699.19;10532896;28;20031;-75
2021/01/26 10:35:32;;;;;;;9.10;4.95;;;;;;;-0.73;100.00;93710.91;10533063;28;20036;-75
2021/01/26 10:40:33;;;;;;;5.93;4.63;;;;;;;-0.72;100.00;93708.03;10533000;28;20032;-76
2021/01/26 10:45:46;;;;;;;5.40;4.78;;;;;;;-0.73;100.00;93710.91;10532994;28;20391;-76
2021/01/26 10:50:47;;;;;;;7.13;4.55;;;;;;;-0.94;100.00;93713.03;10532032;28;20096;-76
2021/01/26 10:55:47;;;;;;;4.30;3.85;;;;;;;-1.09;100.00;93723.22;10532763;28;20092;-74
2021/01/26 11:00:48;;;;;;;5.50;4.00;;;;;;;-0.93;100.00;93732.34;10532095;28;20020;-75
2021/01/26 11:05:48;;;;;;;4.77;3.67;;;;;;;-1.04;100.00;93733.91;10531453;28;20030;-74
2021/01/26 11:10:49;;;;;;;6.50;4.95;;;;;;;-0.94;100.00;93741.25;10531642;28;20106;-75
2021/01/26 11:15:49;;;;;;;7.60;5.20;;;;;;;-1.02;100.00;93746.88;10531901;28;20154;-74
2021/01/26 11:20:50;;;;;;;7.13;5.13;;;;;;;-0.87;100.00;93753.31;10531136;28;20507;-74
2021/01/26 11:25:51;;;;;;;6.55;5.80;;;;;;;-0.65;100.00;93758.06;10531324;28;20114;-74
2021/01/26 11:30:51;;;;;;;6.22;4.90;;;;;;;-0.89;100.00;93755.38;10556129;28;20372;-75
2021/01/26 11:35:52;;;;;;;10.68;5.97;;;;;;;-0.67;100.00;93759.31;10558667;28;20032;-74
2021/01/26 11:40:56;;;;;;;6.25;4.68;;;;;;;-0.47;100.00;93764.28;10530384;28;20409;-74
2021/01/26 11:45:56;;;;;;;9.73;5.43;;;;;;;-0.29;100.00;93758.06;10530982;28;20029;-75
2021/01/26 11:50:57;;;;;;;10.93;4.80;;;;;;;-0.19;100.00;93755.69;10530055;28;20509;-74
2021/01/26 11:55:58;;;;;;;9.10;7.00;;;;;;;-0.14;100.00;93761.09;10541246;28;20076;-74
2021/01/26 12:00:59;;;;;;;9.45;5.03;;;;;;;-0.04;100.00;93755.22;10541807;28;20395;-74
2021/01/26 12:05:59;;;;;;;8.38;5.65;;;;;;;0.01;100.00;93763.22;10529341;28;20027;-74
2021/01/26 12:11:00;;;;;;;8.48;5.85;;;;;;;-0.14;100.00;93770.81;10529847;28;20046;-74
2021/01/26 12:16:01;;;;;;;13.88;8.80;;;;;;;-0.08;100.00;93757.50;10511829;28;20024;-74
2021/01/26 12:21:01;;;;;;;11.33;8.03;;;;;;;0.03;100.00;93758.53;10532248;28;20048;-75
2021/01/26 12:26:03;;;;;;;10.68;7.28;;;;;;;0.15;100.00;93763.78;10566858;28;20273;-75
2021/01/26 12:31:03;;;;;;;14.50;9.05;;;;;;;0.14;100.00;93765.63;10569577;28;20107;-75
2021/01/26 12:36:04;;;;;;;14.07;8.30;;;;;;;0.17;100.00;93761.75;10571787;28;20092;-75
2021/01/26 12:41:05;;;;;;;14.82;8.82;;;;;;;0.21;100.00;93767.34;10579709;28;20046;-75
2021/01/26 12:46:05;;;;;;;18.95;11.15;;;;;;;0.19;100.00;93761.50;10579445;28;20020;-75
2021/01/26 12:51:06;;;;;;;22.37;11.20;;;;;;;0.25;100.00;93756.09;10579007;28;20030;-75
2021/01/26 12:56:06;;;;;;;25.90;11.47;;;;;;;0.31;100.00;93754.34;10578932;28;20032;-75
2021/01/26 13:01:06;;;;;;;18.53;9.90;;;;;;;0.24;100.00;93757.13;10566072;28;20278;-75
2021/01/26 13:06:07;;;;;;;31.50;11.10;;;;;;;0.17;100.00;93751.16;10536705;28;20031;-75
2021/01/26 13:11:08;;;;;;;10.30;6.47;;;;;;;0.08;100.00;93750.69;10535505;28;20737;-75
2021/01/26 13:16:08;;;;;;;19.98;6.85;;;;;;;0.22;100.00;93751.25;10536075;28;20430;-75
2021/01/26 13:21:08;;;;;;;23.50;7.43;;;;;;;0.14;100.00;93762.19;10536057;28;20048;-75
2021/01/26 13:26:09;;;;;;;15.73;6.57;;;;;;;0.02;100.00;93762.22;10535046;28;20349;-75
2021/01/26 13:31:10;;;;;;;16.73;6.22;;;;;;;-0.05;100.00;93770.25;10535306;28;20274;-75
2021/01/26 13:36:13;;;;;;;9.82;6.40;;;;;;;-0.14;100.00;93776.09;10535300;28;20051;-75
2021/01/26 13:41:13;;;;;;;21.52;9.05;;;;;;;-0.07;100.00;93782.06;10534313;28;20099;-75
2021/01/26 13:46:14;;;;;;;12.83;6.83;;;;;;;-0.10;100.00;93780.69;10534770;28;20482;-75
2021/01/26 13:51:14;;;;;;;15.97;7.93;;;;;;;-0.30;100.00;93793.44;10544582;28;20281;-75
2021/01/26 13:56:15;;;;;;;16.35;6.75;;;;;;;-0.35;100.00;93794.13;10539260;28;20286;-75
2021/01/26 14:01:15;;;;;;;17.00;7.23;;;;;;;-0.41;100.00;93797.69;10544634;28;20038;-76
2021/01/26 14:06:17;;;;;;;9.40;6.73;;;;;;;-0.48;100.00;93792.50;10540383;28;20031;-76
2021/01/26 14:11:17;;;;;;;12.82;7.65;;;;;;;-0.53;100.00;93792.38;10573600;28;20317;-76
2021/01/26 14:16:18;;;;;;;9.77;6.35;;;;;;;-0.60;100.00;93795.13;10571606;28;20419;-76
2021/01/26 14:21:18;;;;;;;14.68;8.63;;;;;;;-0.59;100.00;93795.94;10575302;28;20044;-75
2021/01/26 14:26:19;;;;;;;11.07;6.97;;;;;;;-0.59;100.00;93801.22;10540458;28;20031;-76
2021/01/26 14:31:19;;;;;;;12.40;7.40;;;;;;;-0.71;100.00;93804.63;10533103;28;20026;-76
2021/01/26 14:36:19;;;;;;;13.57;8.87;;;;;;;-0.78;100.00;93803.09;10532892;28;20343;-77
2021/01/26 14:41:21;;;;;;;12.88;8.05;;;;;;;-1.00;100.00;93797.56;10532448;28;20274;-76
2021/01/26 14:46:26;;;;;;;18.92;8.23;;;;;;;-0.96;100.00;93809.25;10546738;28;20054;-75
2021/01/26 14:51:26;;;;;;;24.40;9.80;;;;;;;-1.00;100.00;93813.38;10551038;28;20031;-75
2021/01/26 14:56:27;;;;;;;12.43;6.80;;;;;;;-1.03;100.00;93812.00;10563018;28;20032;-75
2021/01/26 15:01:27;;;;;;;14.50;8.30;;;;;;;-1.36;100.00;93813.22;10518887;28;20027;-74
2021/01/26 15:06:28;;;;;;;9.00;6.35;;;;;;;-1.40;100.00;93818.13;10531810;28;20028;-75
2021/01/26 15:11:28;;;;;;;13.50;7.32;;;;;;;-1.12;100.00;93808.06;10529325;28;20020;-75
2021/01/26 15:16:30;;;;;;;14.45;7.90;;;;;;;-1.20;100.00;93811.78;10512258;28;20072;-75
2021/01/26 15:21:31;;;;;;;16.95;7.95;;;;;;;-1.00;100.00;93818.66;10529896;28;20423;-75
2021/01/26 15:26:31;;;;;;;17.83;8.10;;;;;;;-1.10;100.00;93811.28;10541465;28;20020;-75
2021/01/26 15:31:32;;;;;;;17.42;7.53;;;;;;;-1.13;100.00;93811.72;10572368;28;20032;-75
2021/01/26 15:36:32;;;;;;;13.47;7.27;;;;;;;-1.53;100.00;93814.84;10572225;28;20054;-75
2021/01/26 15:41:33;;;;;;;14.30;7.68;;;;;;;-1.47;100.00;93817.41;10530894;28;20274;-75
2021/01/26 15:46:34;;;;;;;9.75;6.85;;;;;;;-1.78;100.00;93821.00;10530244;28;20028;-75
2021/01/26 15:51:34;;;;;;;10.85;5.30;;;;;;;-2.19;100.00;93831.13;10538791;28;20024;-75
2021/01/26 15:56:35;;;;;;;19.35;8.35;;;;;;;-2.24;100.00;93837.00;10572136;28;20035;-75
2021/01/26 16:01:35;;;;;;;18.67;9.50;;;;;;;-2.47;100.00;93844.69;10570584;28;20027;-75
2021/01/26 16:06:35;;;;;;;17.83;9.88;;;;;;;-2.66;100.00;93842.00;10529925;28;20270;-76
2021/01/26 16:11:36;;;;;;;23.20;10.23;;;;;;;-2.64;100.00;93855.75;10534323;28;20050;-75
2021/01/26 16:16:37;;;;;;;22.60;10.82;;;;;;;-2.76;100.00;93860.88;10545287;28;20285;-75
2021/01/26 16:21:38;;;;;;;16.60;9.43;;;;;;;-2.82;100.00;93866.19;10547649;28;20044;-75
2021/01/26 16:26:44;;;;;;;28.00;12.68;;;;;;;-2.95;100.00;93867.88;10558639;28;20020;-80
2021/01/26 16:31:44;;;;;;;23.52;11.80;;;;;;;-3.01;100.00;93871.34;10518695;28;20032;-77
2021/01/26 16:36:45;;;;;;;26.20;12.40;;;;;;;-3.06;100.00;93863.28;10537016;28;20028;-76
2021/01/26 16:41:45;;;;;;;32.83;15.18;;;;;;;-3.08;100.00;93870.56;10536910;28;20310;-80
2021/01/26 16:46:46;;;;;;;26.40;11.90;;;;;;;-3.06;100.00;93870.38;10572658;28;20019;-79
2021/01/26 16:51:47;;;;;;;29.80;14.63;;;;;;;-3.06;100.00;93875.63;10555567;28;20103;-77
2021/01/26 16:56:47;;;;;;;30.77;16.50;;;;;;;-3.15;100.00;93867.97;10536486;28;20028;-77
2021/01/26 17:01:48;;;;;;;28.42;16.10;;;;;;;-3.07;100.00;93874.78;10536267;28;20107;-77
2021/01/26 17:06:48;;;;;;;35.23;16.83;;;;;;;-3.15;100.00;93867.97;10575952;28;20442;-77
2021/01/26 17:11:48;;;;;;;35.77;17.67;;;;;;;-3.10;100.00;93868.16;10578249;28;20912;-78
2021/01/26 17:16:52;;;;;;;31.57;18.23;;;;;;;-3.14;100.00;93850.38;10575149;28;20652;-77
2021/01/26 17:21:53;;;;;;;31.50;16.10;;;;;;;-3.03;100.00;93860.22;10574058;28;20050;-77
2021/01/26 17:26:53;;;;;;;35.72;18.10;;;;;;;-3.01;100.00;93858.19;10573762;28;20045;-76
2021/01/26 17:31:53;;;;;;;32.90;15.87;;;;;;;-2.93;100.00;93852.69;10572103;28;20019;-77
2021/01/26 17:36:54;;;;;;;39.20;20.00;;;;;;;-3.00;100.00;93853.75;10574002;28;20277;-77
2021/01/26 17:41:55;;;;;;;35.75;17.95;;;;;;;-2.95;100.00;93852.09;10569453;27;20035;-77
2021/01/26 17:46:55;;;;;;;38.58;21.17;;;;;;;-2.94;100.00;93864.22;10570743;28;20028;-80
2021/01/26 17:51:56;;;;;;;39.83;20.05;;;;;;;-2.94;100.00;93843.19;10565862;28;20048;-81
2021/01/26 17:56:56;;;;;;;31.93;16.63;;;;;;;-2.87;100.00;93842.38;10566193;28;20023;-81
2021/01/26 18:01:57;;;;;;;38.53;17.05;;;;;;;-2.68;100.00;93844.06;10566712;28;20338;-82
2021/01/26 18:06:57;;;;;;;33.03;14.38;;;;;;;-2.70;100.00;93853.97;10566215;28;20046;-80
2021/01/26 18:11:58;;;;;;;40.13;17.30;;;;;;;-2.71;100.00;93852.34;10565362;28;20030;-80
2021/01/26 18:16:58;;;;;;;37.83;18.00;;;;;;;-2.72;100.00;93849.94;10567281;28;20019;-80
2021/01/26 18:21:59;;;;;;;37.33;17.33;;;;;;;-2.66;100.00;93839.38;10569253;28;20047;-80
2021/01/26 18:26:59;;;;;;;39.75;19.05;;;;;;;-2.51;100.00;93843.50;10563831;28;20029;-80
2021/01/26 18:31:59;;;;;;;43.63;20.53;;;;;;;-2.46;100.00;93835.78;10529949;28;20031;-80
2021/01/26 18:37:00;;;;;;;36.43;19.53;;;;;;;-2.71;100.00;93844.47;10525017;28;20494;-80
2021/01/26 18:42:01;;;;;;;47.13;21.23;;;;;;;-2.86;100.00;93844.78;10526557;28;20266;-79
2021/01/26 18:47:02;;;;;;;43.65;19.83;;;;;;;-2.57;100.00;93824.13;10521036;28;20023;-79
2021/01/26 18:52:03;;;;;;;40.60;19.40;;;;;;;-2.44;100.00;93833.75;10527685;28;20020;-79
2021/01/26 18:57:04;;;;;;;37.38;19.05;;;;;;;-2.60;100.00;93828.00;10528784;28;20478;-79
2021/01/26 19:02:04;;;;;;;31.88;16.85;;;;;;;-2.54;100.00;93831.63;10517687;28;20078;-79
2021/01/26 19:07:05;;;;;;;37.58;18.88;;;;;;;-2.62;100.00;93832.66;10487930;28;20510;-79
2021/01/26 19:12:07;;;;;;;41.97;20.25;;;;;;;-2.67;100.00;93839.59;10488821;28;20025;-80
2021/01/26 19:17:07;;;;;;;33.35;17.73;;;;;;;-2.46;100.00;93841.84;10493359;28;20852;-79
2021/01/26 19:22:07;;;;;;;43.47;16.45;;;;;;;-2.40;100.00;93840.19;10499960;28;20051;-79
2021/01/26 19:27:08;;;;;;;37.17;17.23;;;;;;;-2.28;100.00;93846.34;10490208;28;20623;-79
2021/01/26 19:32:09;;;;;;;35.05;18.90;;;;;;;-2.39;100.00;93846.28;10520831;28;20373;-79
2021/01/26 19:37:09;;;;;;;29.97;15.17;;;;;;;-2.30;100.00;93848.41;10520993;28;20052;-72
2021/01/26 19:42:10;;;;;;;35.70;17.05;;;;;;;-2.39;100.00;93852.31;10526598;28;20289;-72
2021/01/26 19:47:11;;;;;;;29.67;16.55;;;;;;;-2.47;100.00;93840.25;10504360;28;20547;-71
2021/01/26 19:52:13;;;;;;;34.70;14.90;;;;;;;-2.28;100.00;93849.00;10486926;28;20032;-71
2021/01/26 19:57:13;;;;;;;32.00;16.80;;;;;;;-2.37;100.00;93847.66;10486479;28;20782;-72
2021/01/26 20:02:14;;;;;;;29.13;16.52;;;;;;;-2.37;100.00;93845.03;10490682;28;20043;-72
2021/01/26 20:07:16;;;;;;;41.67;17.77;;;;;;;-2.42;100.00;93836.97;10484625;28;20144;-72
2021/01/26 20:12:17;;;;;;;29.25;15.73;;;;;;;-2.49;100.00;93849.38;10515341;28;20285;-73
2021/01/26 20:17:18;;;;;;;35.50;16.25;;;;;;;-2.75;100.00;93845.91;10485159;28;20389;-73
2021/01/26 20:22:18;;;;;;;34.10;17.20;;;;;;;-2.55;100.00;93831.81;10485820;28;20081;-73
2021/01/26 20:27:19;;;;;;;31.23;16.08;;;;;;;-2.64;100.00;93832.09;10485466;28;20045;-73
2021/01/26 20:32:20;;;;;;;36.25;19.55;;;;;;;-2.71;100.00;93841.03;10525268;28;20024;-72
2021/01/26 20:37:20;;;;;;;39.22;17.55;;;;;;;-2.64;100.00;93834.72;10527621;28;20395;-72
2021/01/26 20:42:20;;;;;;;27.73;14.60;;;;;;;-2.43;100.00;93835.34;10517891;28;20474;-73
2021/01/26 20:47:21;;;;;;;26.30;13.83;;;;;;;-2.54;100.00;93829.00;10504703;28;20032;-72
2021/01/26 20:52:21;;;;;;;31.13;15.15;;;;;;;-2.64;100.00;93833.91;10506723;28;20282;-76
2021/01/26 20:57:22;;;;;;;31.53;15.30;;;;;;;-2.78;100.00;93846.34;10510457;28;20085;-71
2021/01/26 21:02:22;;;;;;;33.30;15.50;;;;;;;-2.75;100.00;93853.78;10515901;28;20278;-71
2021/01/26 21:07:22;;;;;;;40.03;17.33;;;;;;;-2.75;100.00;93843.28;10535300;28;21121;-71
2021/01/26 21:12:23;;;;;;;29.67;13.70;;;;;;;-2.85;100.00;93851.63;10495498;28;20656;-71
2021/01/26 21:17:23;;;;;;;33.85;15.68;;;;;;;-2.66;100.00;93846.47;10565299;28;20067;-71
2021/01/26 21:22:23;;;;;;;28.37;12.77;;;;;;;-2.65;100.00;93843.63;10575543;28;20118;-71
2021/01/26 21:27:25;;;;;;;29.75;13.95;;;;;;;-2.53;100.00;93840.31;10537672;28;20294;-71
2021/01/26 21:32:26;;;;;;;32.95;15.27;;;;;;;-2.62;100.00;93830.03;10533918;28;20020;-71
2021/01/26 21:37:26;;;;;;;28.02;13.30;;;;;;;-2.76;100.00;93834.59;10556125;28;20463;-71
2021/01/26 21:42:28;;;;;;;31.80;13.67;;;;;;;-2.80;100.00;93830.78;10575605;28;20027;-72
2021/01/26 21:47:28;;;;;;;26.80;15.35;;;;;;;-3.05;100.00;93838.63;10576731;28;20078;-71
2021/01/26 21:52:28;;;;;;;35.43;17.10;;;;;;;-3.10;100.00;93847.13;10575433;28;20114;-71
2021/01/26 21:57:29;;;;;;;31.90;15.50;;;;;;;-3.16;100.00;93837.44;10574709;28;20285;-72
2021/01/26 22:02:29;;;;;;;31.53;16.43;;;;;;;-3.17;100.00;93835.03;10576029;28;20276;-71
2021/01/26 22:07:29;;;;;;;36.90;17.90;;;;;;;-3.16;100.00;93819.06;10575214;28;20261;-71
2021/01/26 22:12:30;;;;;;;29.95;15.95;;;;;;;-3.15;100.00;93817.25;10574679;28;20035;-72
2021/01/26 22:17:30;;;;;;;26.88;15.55;;;;;;;-3.21;100.00;93808.38;10574981;28;20139;-72
2021/01/26 22:22:31;;;;;;;32.78;17.10;;;;;;;-3.29;100.00;93808.63;10574753;28;20052;-72
2021/01/26 22:27:32;;;;;;;29.17;17.30;;;;;;;-3.41;100.00;93811.09;10575234;28;20764;-71
2021/01/26 22:32:32;;;;;;;23.15;12.38;;;;;;;-3.46;100.00;93810.91;10574386;28;20028;-72
2021/01/26 22:37:33;;;;;;;42.17;18.15;;;;;;;-3.53;100.00;93816.22;10535850;28;20037;-72
2021/01/26 22:42:33;;;;;;;29.77;15.77;;;;;;;-3.44;100.00;93809.69;10532298;28;20085;-71
2021/01/26 22:47:34;;;;;;;37.67;17.08;;;;;;;-3.42;100.00;93796.34;10531313;28;20035;-72
2021/01/26 22:52:34;;;;;;;36.90;15.45;;;;;;;-3.42;100.00;93780.59;10520988;28;20106;-71
2021/01/26 22:57:35;;;;;;;33.53;15.95;;;;;;;-3.32;100.00;93780.13;10489525;28;20040;-71
2021/01/26 23:02:35;;;;;;;30.02;14.98;;;;;;;-3.35;100.00;93768.25;10523479;28;20543;-72
2021/01/26 23:07:36;;;;;;;34.10;14.87;;;;;;;-3.29;100.00;93777.91;10530772;28;20027;-72
2021/01/26 23:12:37;;;;;;;37.75;17.05;;;;;;;-3.24;100.00;93776.47;10530590;28;20288;-72
2021/01/26 23:17:38;;;;;;;29.25;15.38;;;;;;;-3.28;100.00;93769.00;10530658;28;20035;-72